sensor_id;sensor_type;location;lat;lon;timestamp;pressure;altitude;pressure_sealevel;temperature
80680;BMP280;70043;51.982;-8.514;2024-03-17T00:01:43;98777.94;;;12.71
80680;BMP280;70043;51.982;-8.514;2024-03-17T00:04:09;98775.06;;;12.67
80680;BMP280;70043;51.982;-8.514;2024-03-17T00:06:38;98758.69;;;12.68
80680;BMP280;70043;51.982;-8.514;2024-03-17T00:09:04;98766.47;;;12.73
80680;BMP280;70043;51.982;-8.514;2024-03-17T00:11:32;98760.34;;;12.74
80680;BMP280;70043;51.982;-8.514;2024-03-17T00:13:58;98757.00;;;12.74
80680;BMP280;70043;51.982;-8.514;2024-03-17T00:16:26;98754.66;;;12.72
80680;BMP280;70043;51.982;-8.514;2024-03-17T00:18:54;98747.75;;;12.73
80680;BMP280;70043;51.982;-8.514;2024-03-17T00:21:22;98737.28;;;12.74
80680;BMP280;70043;51.982;-8.514;2024-03-17T00:23:47;98741.06;;;12.72
80680;BMP280;70043;51.982;-8.514;2024-03-17T00:26:16;98724.97;;;12.71
80680;BMP280;70043;51.982;-8.514;2024-03-17T00:28:42;98729.84;;;12.73
80680;BMP280;70043;51.982;-8.514;2024-03-17T00:31:12;98730.63;;;12.73
80680;BMP280;70043;51.982;-8.514;2024-03-17T00:33:40;98730.63;;;12.73
80680;BMP280;70043;51.982;-8.514;2024-03-17T00:36:09;98725.41;;;12.68
80680;BMP280;70043;51.982;-8.514;2024-03-17T00:38:35;98722.31;;;12.66
80680;BMP280;70043;51.982;-8.514;2024-03-17T00:41:02;98710.50;;;12.65
80680;BMP280;70043;51.982;-8.514;2024-03-17T00:43:28;98710.75;;;12.64
80680;BMP280;70043;51.982;-8.514;2024-03-17T00:45:56;98711.75;;;12.63
80680;BMP280;70043;51.982;-8.514;2024-03-17T00:48:21;98707.84;;;12.60
80680;BMP280;70043;51.982;-8.514;2024-03-17T00:50:55;98708.84;;;12.59
80680;BMP280;70043;51.982;-8.514;2024-03-17T00:53:22;98710.63;;;12.58
80680;BMP280;70043;51.982;-8.514;2024-03-17T00:55:52;98712.75;;;12.61
80680;BMP280;70043;51.982;-8.514;2024-03-17T00:58:19;98707.78;;;12.55
80680;BMP280;70043;51.982;-8.514;2024-03-17T01:00:47;98708.97;;;12.52
80680;BMP280;70043;51.982;-8.514;2024-03-17T01:03:13;98707.91;;;12.48
80680;BMP280;70043;51.982;-8.514;2024-03-17T01:05:41;98709.69;;;12.48
80680;BMP280;70043;51.982;-8.514;2024-03-17T01:08:08;98712.00;;;12.49
80680;BMP280;70043;51.982;-8.514;2024-03-17T01:10:39;98709.19;;;12.51
80680;BMP280;70043;51.982;-8.514;2024-03-17T01:13:06;98707.78;;;12.55
80680;BMP280;70043;51.982;-8.514;2024-03-17T01:15:34;98702.56;;;12.50
80680;BMP280;70043;51.982;-8.514;2024-03-17T01:18:01;98707.66;;;12.50
80680;BMP280;70043;51.982;-8.514;2024-03-17T01:20:28;98704.66;;;12.53
80680;BMP280;70043;51.982;-8.514;2024-03-17T01:22:54;98703.09;;;12.52
80680;BMP280;70043;51.982;-8.514;2024-03-17T01:25:22;98701.88;;;12.54
80680;BMP280;70043;51.982;-8.514;2024-03-17T01:27:52;98692.06;;;12.51
80680;BMP280;70043;51.982;-8.514;2024-03-17T01:30:18;98696.53;;;12.56
80680;BMP280;70043;51.982;-8.514;2024-03-17T01:32:46;98692.41;;;12.55
80680;BMP280;70043;51.982;-8.514;2024-03-17T01:35:12;98692.97;;;12.57
80680;BMP280;70043;51.982;-8.514;2024-03-17T01:37:39;98683.72;;;12.56
80680;BMP280;70043;51.982;-8.514;2024-03-17T01:40:06;98691.19;;;12.57
80680;BMP280;70043;51.982;-8.514;2024-03-17T01:42:35;98684.50;;;12.56
80680;BMP280;70043;51.982;-8.514;2024-03-17T01:45:02;98686.34;;;12.61
80680;BMP280;70043;51.982;-8.514;2024-03-17T01:47:45;98678.25;;;12.64
80680;BMP280;70043;51.982;-8.514;2024-03-17T01:50:11;98673.34;;;12.63
80680;BMP280;70043;51.982;-8.514;2024-03-17T01:52:42;98671.00;;;12.61
80680;BMP280;70043;51.982;-8.514;2024-03-17T01:55:08;98664.88;;;12.62
80680;BMP280;70043;51.982;-8.514;2024-03-17T01:57:36;98670.78;;;12.63
80680;BMP280;70043;51.982;-8.514;2024-03-17T02:00:04;98670.22;;;12.60
80680;BMP280;70043;51.982;-8.514;2024-03-17T02:02:34;98671.09;;;12.66
80680;BMP280;70043;51.982;-8.514;2024-03-17T02:05:01;98672.09;;;12.65
80680;BMP280;70043;51.982;-8.514;2024-03-17T02:07:28;98662.88;;;12.64
80680;BMP280;70043;51.982;-8.514;2024-03-17T02:09:56;98666.44;;;12.63
80680;BMP280;70043;51.982;-8.514;2024-03-17T02:12:23;98655.94;;;12.65
80680;BMP280;70043;51.982;-8.514;2024-03-17T02:14:50;98659.84;;;12.67
80680;BMP280;70043;51.982;-8.514;2024-03-17T02:17:18;98657.50;;;12.66
80680;BMP280;70043;51.982;-8.514;2024-03-17T02:19:44;98642.84;;;12.61
80680;BMP280;70043;51.982;-8.514;2024-03-17T02:22:13;98652.69;;;12.69
80680;BMP280;70043;51.982;-8.514;2024-03-17T02:24:40;98647.06;;;12.67
80680;BMP280;70043;51.982;-8.514;2024-03-17T02:27:06;98647.53;;;12.64
80680;BMP280;70043;51.982;-8.514;2024-03-17T02:29:32;98656.72;;;12.65
80680;BMP280;70043;51.982;-8.514;2024-03-17T02:31:59;98650.38;;;12.68
80680;BMP280;70043;51.982;-8.514;2024-03-17T02:34:25;98647.84;;;12.68
80680;BMP280;70043;51.982;-8.514;2024-03-17T02:36:52;98635.03;;;12.68
80680;BMP280;70043;51.982;-8.514;2024-03-17T02:39:19;98634.31;;;12.72
80680;BMP280;70043;51.982;-8.514;2024-03-17T02:42:01;98633.78;;;12.70
80680;BMP280;70043;51.982;-8.514;2024-03-17T02:44:28;98633.53;;;12.72
80680;BMP280;70043;51.982;-8.514;2024-03-17T02:46:55;98624.63;;;12.74
80680;BMP280;70043;51.982;-8.514;2024-03-17T02:49:22;98622.63;;;12.76
80680;BMP280;70043;51.982;-8.514;2024-03-17T02:51:49;98610.03;;;12.75
80680;BMP280;70043;51.982;-8.514;2024-03-17T02:54:16;98616.72;;;12.76
80680;BMP280;70043;51.982;-8.514;2024-03-17T02:56:44;98612.38;;;12.76
80680;BMP280;70043;51.982;-8.514;2024-03-17T02:59:12;98616.38;;;12.72
80680;BMP280;70043;51.982;-8.514;2024-03-17T03:01:39;98610.81;;;12.75
80680;BMP280;70043;51.982;-8.514;2024-03-17T03:04:06;98609.28;;;12.74
80680;BMP280;70043;51.982;-8.514;2024-03-17T03:06:33;98608.72;;;12.72
80680;BMP280;70043;51.982;-8.514;2024-03-17T03:09:00;98598.94;;;12.69
80680;BMP280;70043;51.982;-8.514;2024-03-17T03:11:28;98596.94;;;12.71
80680;BMP280;70043;51.982;-8.514;2024-03-17T03:13:56;98598.72;;;12.71
80680;BMP280;70043;51.982;-8.514;2024-03-17T03:16:23;98586.59;;;12.66
80680;BMP280;70043;51.982;-8.514;2024-03-17T03:18:50;98592.81;;;12.70
80680;BMP280;70043;51.982;-8.514;2024-03-17T03:21:17;98592.81;;;12.70
80680;BMP280;70043;51.982;-8.514;2024-03-17T03:23:44;98592.13;;;12.75
80680;BMP280;70043;51.982;-8.514;2024-03-17T03:26:12;98586.13;;;12.69
80680;BMP280;70043;51.982;-8.514;2024-03-17T03:28:39;98580.50;;;12.67
80680;BMP280;70043;51.982;-8.514;2024-03-17T03:31:10;98570.78;;;12.69
80680;BMP280;70043;51.982;-8.514;2024-03-17T03:33:39;98578.47;;;12.69
80680;BMP280;70043;51.982;-8.514;2024-03-17T03:36:10;98579.53;;;12.73
80680;BMP280;70043;51.982;-8.514;2024-03-17T03:38:37;98571.34;;;12.71
80680;BMP280;70043;51.982;-8.514;2024-03-17T03:41:08;98573.09;;;12.71
80680;BMP280;70043;51.982;-8.514;2024-03-17T03:43:35;98563.66;;;12.71
80680;BMP280;70043;51.982;-8.514;2024-03-17T03:46:03;98565.19;;;12.72
80680;BMP280;70043;51.982;-8.514;2024-03-17T03:48:32;98561.16;;;12.76
80680;BMP280;70043;51.982;-8.514;2024-03-17T03:51:03;98566.75;;;12.73
80680;BMP280;70043;51.982;-8.514;2024-03-17T03:53:31;98564.75;;;12.75
80680;BMP280;70043;51.982;-8.514;2024-03-17T03:55:57;98570.56;;;12.71
80680;BMP280;70043;51.982;-8.514;2024-03-17T03:58:26;98560.78;;;12.68
80680;BMP280;70043;51.982;-8.514;2024-03-17T04:00:54;98555.88;;;12.66
80680;BMP280;70043;51.982;-8.514;2024-03-17T04:03:21;98551.78;;;12.65
80680;BMP280;70043;51.982;-8.514;2024-03-17T04:05:50;98553.09;;;12.68
80680;BMP280;70043;51.982;-8.514;2024-03-17T04:08:19;98552.31;;;12.67
80680;BMP280;70043;51.982;-8.514;2024-03-17T04:10:49;98545.66;;;12.66
80680;BMP280;70043;51.982;-8.514;2024-03-17T04:13:17;98544.16;;;12.70
80680;BMP280;70043;51.982;-8.514;2024-03-17T04:15:44;98546.25;;;12.73
80680;BMP280;70043;51.982;-8.514;2024-03-17T04:18:11;98538.56;;;12.73
80680;BMP280;70043;51.982;-8.514;2024-03-17T04:20:40;98527.81;;;12.71
80680;BMP280;70043;51.982;-8.514;2024-03-17T04:23:08;98531.44;;;12.75
80680;BMP280;70043;51.982;-8.514;2024-03-17T04:25:35;98524.53;;;12.76
80680;BMP280;70043;51.982;-8.514;2024-03-17T04:28:03;98533.44;;;12.73
80680;BMP280;70043;51.982;-8.514;2024-03-17T04:30:30;98523.69;;;12.70
80680;BMP280;70043;51.982;-8.514;2024-03-17T04:32:58;98530.91;;;12.73
80680;BMP280;70043;51.982;-8.514;2024-03-17T04:38:48;98532.94;;;12.71
80680;BMP280;70043;51.982;-8.514;2024-03-17T04:41:16;98530.38;;;12.71
80680;BMP280;70043;51.982;-8.514;2024-03-17T04:43:44;98532.16;;;12.71
80680;BMP280;70043;51.982;-8.514;2024-03-17T04:46:11;98532.63;;;12.68
80680;BMP280;70043;51.982;-8.514;2024-03-17T04:48:39;98530.91;;;12.73
80680;BMP280;70043;51.982;-8.514;2024-03-17T04:51:06;98530.13;;;12.73
80680;BMP280;70043;51.982;-8.514;2024-03-17T04:53:33;98527.50;;;12.68
80680;BMP280;70043;51.982;-8.514;2024-03-17T04:56:04;98522.06;;;12.64
80680;BMP280;70043;51.982;-8.514;2024-03-17T04:58:32;98528.19;;;12.63
80680;BMP280;70043;51.982;-8.514;2024-03-17T05:01:03;98526.09;;;12.60
80680;BMP280;70043;51.982;-8.514;2024-03-17T05:03:30;98517.41;;;12.61
80680;BMP280;70043;51.982;-8.514;2024-03-17T05:06:01;98526.63;;;12.62
80680;BMP280;70043;51.982;-8.514;2024-03-17T05:08:28;98523.75;;;12.58
80680;BMP280;70043;51.982;-8.514;2024-03-17T05:10:59;98514.28;;;12.59
80680;BMP280;70043;51.982;-8.514;2024-03-17T05:13:28;98516.84;;;12.59
80680;BMP280;70043;51.982;-8.514;2024-03-17T05:15:55;98512.75;;;12.58
80680;BMP280;70043;51.982;-8.514;2024-03-17T05:18:22;98516.84;;;12.59
80680;BMP280;70043;51.982;-8.514;2024-03-17T05:21:00;98513.78;;;12.57
80680;BMP280;70043;51.982;-8.514;2024-03-17T05:23:29;98518.34;;;12.55
80680;BMP280;70043;51.982;-8.514;2024-03-17T05:25:58;98515.22;;;12.53
80680;BMP280;70043;51.982;-8.514;2024-03-17T05:28:26;98515.78;;;12.55
80680;BMP280;70043;51.982;-8.514;2024-03-17T05:30:55;98510.66;;;12.55
80680;BMP280;70043;51.982;-8.514;2024-03-17T05:33:23;98510.44;;;12.56
80680;BMP280;70043;51.982;-8.514;2024-03-17T05:35:51;98514.22;;;12.54
80680;BMP280;70043;51.982;-8.514;2024-03-17T05:38:19;98519.41;;;12.59
80680;BMP280;70043;51.982;-8.514;2024-03-17T05:40:56;98523.00;;;12.58
80680;BMP280;70043;51.982;-8.514;2024-03-17T05:43:25;98506.09;;;12.57
80680;BMP280;70043;51.982;-8.514;2024-03-17T05:45:56;98502.66;;;12.51
80680;BMP280;70043;51.982;-8.514;2024-03-17T05:48:23;98519.56;;;12.52
80680;BMP280;70043;51.982;-8.514;2024-03-17T05:50:50;98515.19;;;12.48
80680;BMP280;70043;51.982;-8.514;2024-03-17T05:53:18;98511.66;;;12.54
80680;BMP280;70043;51.982;-8.514;2024-03-17T05:55:45;98516.34;;;12.57
80680;BMP280;70043;51.982;-8.514;2024-03-17T05:58:12;98508.66;;;12.57
80680;BMP280;70043;51.982;-8.514;2024-03-17T06:00:39;98514.00;;;12.55
80680;BMP280;70043;51.982;-8.514;2024-03-17T06:03:09;98512.22;;;12.56
80680;BMP280;70043;51.982;-8.514;2024-03-17T06:05:37;98509.66;;;12.56
80680;BMP280;70043;51.982;-8.514;2024-03-17T06:08:06;98517.41;;;12.61
80680;BMP280;70043;51.982;-8.514;2024-03-17T06:10:36;98509.72;;;12.61
80680;BMP280;70043;51.982;-8.514;2024-03-17T06:13:03;98520.69;;;12.56
80680;BMP280;70043;51.982;-8.514;2024-03-17T06:15:30;98515.84;;;12.60
80680;BMP280;70043;51.982;-8.514;2024-03-17T06:17:57;98523.00;;;12.58
80680;BMP280;70043;51.982;-8.514;2024-03-17T06:20:28;98517.78;;;12.53
80680;BMP280;70043;51.982;-8.514;2024-03-17T06:22:56;98510.34;;;12.51
80680;BMP280;70043;51.982;-8.514;2024-03-17T06:25:23;98515.19;;;12.48
80680;BMP280;70043;51.982;-8.514;2024-03-17T06:27:50;98512.91;;;12.51
80680;BMP280;70043;51.982;-8.514;2024-03-17T06:30:17;98525.16;;;12.49
80680;BMP280;70043;51.982;-8.514;2024-03-17T06:32:45;98523.63;;;12.48
80680;BMP280;70043;51.982;-8.514;2024-03-17T06:35:13;98534.66;;;12.49
80680;BMP280;70043;51.982;-8.514;2024-03-17T06:37:42;98527.03;;;12.54
80680;BMP280;70043;51.982;-8.514;2024-03-17T06:40:12;98524.47;;;12.54
80680;BMP280;70043;51.982;-8.514;2024-03-17T06:42:40;98525.03;;;12.56
80680;BMP280;70043;51.982;-8.514;2024-03-17T06:45:07;98525.47;;;12.53
80680;BMP280;70043;51.982;-8.514;2024-03-17T06:47:34;98519.75;;;12.46
80680;BMP280;70043;51.982;-8.514;2024-03-17T06:50:02;98521.22;;;12.42
80680;BMP280;70043;51.982;-8.514;2024-03-17T06:52:29;98522.94;;;12.36
80680;BMP280;70043;51.982;-8.514;2024-03-17T06:54:58;98515.00;;;12.38
80680;BMP280;70043;51.982;-8.514;2024-03-17T06:57:25;98527.19;;;12.31
80680;BMP280;70043;51.982;-8.514;2024-03-17T06:59:52;98535.59;;;12.31
80680;BMP280;70043;51.982;-8.514;2024-03-17T07:02:19;98535.72;;;12.36
80680;BMP280;70043;51.982;-8.514;2024-03-17T07:04:47;98548.91;;;12.45
80680;BMP280;70043;51.982;-8.514;2024-03-17T07:07:14;98544.88;;;12.49
80680;BMP280;70043;51.982;-8.514;2024-03-17T07:09:41;98545.38;;;12.51
80680;BMP280;70043;51.982;-8.514;2024-03-17T07:12:10;98550.16;;;12.42
80680;BMP280;70043;51.982;-8.514;2024-03-17T07:14:37;98542.78;;;12.46
80680;BMP280;70043;51.982;-8.514;2024-03-17T07:17:04;98548.84;;;12.40
80680;BMP280;70043;51.982;-8.514;2024-03-17T07:19:32;98545.03;;;12.42
80680;BMP280;70043;51.982;-8.514;2024-03-17T07:22:01;98547.81;;;12.41
80680;BMP280;70043;51.982;-8.514;2024-03-17T07:24:29;98555.88;;;12.49
80680;BMP280;70043;51.982;-8.514;2024-03-17T07:26:56;98551.00;;;12.48
80680;BMP280;70043;51.982;-8.514;2024-03-17T07:29:24;98544.56;;;12.45
80680;BMP280;70043;51.982;-8.514;2024-03-17T07:31:51;98552.63;;;12.54
80680;BMP280;70043;51.982;-8.514;2024-03-17T07:34:18;98556.75;;;12.55
80680;BMP280;70043;51.982;-8.514;2024-03-17T07:36:45;98574.19;;;12.58
80680;BMP280;70043;51.982;-8.514;2024-03-17T07:39:12;98565.47;;;12.59
80680;BMP280;70043;51.982;-8.514;2024-03-17T07:41:40;98561.91;;;12.60
80680;BMP280;70043;51.982;-8.514;2024-03-17T07:44:06;98559.38;;;12.60
80680;BMP280;70043;51.982;-8.514;2024-03-17T07:46:35;98565.03;;;12.62
80680;BMP280;70043;51.982;-8.514;2024-03-17T07:49:02;98563.03;;;12.64
80680;BMP280;70043;51.982;-8.514;2024-03-17T07:51:29;98575.59;;;12.66
80680;BMP280;70043;51.982;-8.514;2024-03-17T07:53:59;98580.50;;;12.67
80680;BMP280;70043;51.982;-8.514;2024-03-17T07:56:26;98580.22;;;12.69
80680;BMP280;70043;51.982;-8.514;2024-03-17T07:58:53;98585.91;;;12.71
80680;BMP280;70043;51.982;-8.514;2024-03-17T08:01:20;98580.78;;;12.71
80680;BMP280;70043;51.982;-8.514;2024-03-17T08:03:49;98578.53;;;12.74
80680;BMP280;70043;51.982;-8.514;2024-03-17T08:06:21;98584.72;;;12.78
80680;BMP280;70043;51.982;-8.514;2024-03-17T08:08:50;98581.16;;;12.79
80680;BMP280;70043;51.982;-8.514;2024-03-17T08:11:17;98585.63;;;12.84
80680;BMP280;70043;51.982;-8.514;2024-03-17T08:13:44;98588.94;;;12.84
80680;BMP280;70043;51.982;-8.514;2024-03-17T08:16:11;98578.97;;;12.88
80680;BMP280;70043;51.982;-8.514;2024-03-17T08:18:38;98591.09;;;12.92
80680;BMP280;70043;51.982;-8.514;2024-03-17T08:21:07;98596.22;;;12.92
80680;BMP280;70043;51.982;-8.514;2024-03-17T08:23:35;98597.78;;;12.93
80680;BMP280;70043;51.982;-8.514;2024-03-17T08:26:07;98607.53;;;12.96
80680;BMP280;70043;51.982;-8.514;2024-03-17T08:28:34;98615.75;;;12.98
80680;BMP280;70043;51.982;-8.514;2024-03-17T08:31:02;98616.31;;;13.00
80680;BMP280;70043;51.982;-8.514;2024-03-17T08:33:30;98621.44;;;13.00
80680;BMP280;70043;51.982;-8.514;2024-03-17T08:36:00;98620.72;;;13.05
80680;BMP280;70043;51.982;-8.514;2024-03-17T08:38:30;98620.72;;;13.05
80680;BMP280;70043;51.982;-8.514;2024-03-17T08:40:58;98614.34;;;13.07
80680;BMP280;70043;51.982;-8.514;2024-03-17T08:43:28;98618.25;;;13.10
80680;BMP280;70043;51.982;-8.514;2024-03-17T08:45:55;98628.81;;;13.14
80680;BMP280;70043;51.982;-8.514;2024-03-17T08:48:24;98635.94;;;13.12
80680;BMP280;70043;51.982;-8.514;2024-03-17T08:50:51;98642.94;;;13.16
80680;BMP280;70043;51.982;-8.514;2024-03-17T08:53:19;98646.28;;;13.17
80680;BMP280;70043;51.982;-8.514;2024-03-17T08:55:47;98646.03;;;13.18
80680;BMP280;70043;51.982;-8.514;2024-03-17T08:58:15;98662.94;;;13.19
80680;BMP280;70043;51.982;-8.514;2024-03-17T09:00:42;98658.59;;;13.20
80680;BMP280;70043;51.982;-8.514;2024-03-17T09:03:09;98663.50;;;13.21
80680;BMP280;70043;51.982;-8.514;2024-03-17T09:05:38;98663.72;;;13.20
80680;BMP280;70043;51.982;-8.514;2024-03-17T09:08:06;98673.75;;;13.21
80680;BMP280;70043;51.982;-8.514;2024-03-17T09:10:39;98690.84;;;13.16
80680;BMP280;70043;51.982;-8.514;2024-03-17T09:13:07;98702.09;;;13.15
80680;BMP280;70043;51.982;-8.514;2024-03-17T09:15:39;98712.63;;;13.18
80680;BMP280;70043;51.982;-8.514;2024-03-17T09:18:06;98720.66;;;13.22
80680;BMP280;70043;51.982;-8.514;2024-03-17T09:20:33;98722.72;;;13.25
80680;BMP280;70043;51.982;-8.514;2024-03-17T09:23:00;98728.41;;;13.27
80680;BMP280;70043;51.982;-8.514;2024-03-17T09:25:27;98718.38;;;13.25
80680;BMP280;70043;51.982;-8.514;2024-03-17T09:27:55;98721.50;;;13.27
80680;BMP280;70043;51.982;-8.514;2024-03-17T09:30:25;98715.38;;;13.28
80680;BMP280;70043;51.982;-8.514;2024-03-17T09:32:53;98732.16;;;13.36
80680;BMP280;70043;51.982;-8.514;2024-03-17T09:35:20;98732.16;;;13.36
80680;BMP280;70043;51.982;-8.514;2024-03-17T09:37:47;98745.50;;;13.38
80680;BMP280;70043;51.982;-8.514;2024-03-17T09:40:14;98745.28;;;13.39
80680;BMP280;70043;51.982;-8.514;2024-03-17T09:42:41;98746.59;;;13.42
80680;BMP280;70043;51.982;-8.514;2024-03-17T09:45:10;98758.47;;;13.48
80680;BMP280;70043;51.982;-8.514;2024-03-17T09:47:38;98756.75;;;13.53
80680;BMP280;70043;51.982;-8.514;2024-03-17T09:50:13;98759.19;;;13.60
80680;BMP280;70043;51.982;-8.514;2024-03-17T09:52:44;98761.22;;;13.63
80680;BMP280;70043;51.982;-8.514;2024-03-17T09:55:16;98761.34;;;13.68
80680;BMP280;70043;51.982;-8.514;2024-03-17T09:57:43;98763.00;;;13.79
80680;BMP280;70043;51.982;-8.514;2024-03-17T10:00:13;98767.78;;;13.87
80680;BMP280;70043;51.982;-8.514;2024-03-17T10:02:46;98764.00;;;13.95
80680;BMP280;70043;51.982;-8.514;2024-03-17T10:05:21;98770.06;;;14.05
80680;BMP280;70043;51.982;-8.514;2024-03-17T10:07:49;98781.97;;;14.17
80680;BMP280;70043;51.982;-8.514;2024-03-17T10:10:17;98782.84;;;14.27
80680;BMP280;70043;51.982;-8.514;2024-03-17T10:12:44;98783.22;;;14.36
80680;BMP280;70043;51.982;-8.514;2024-03-17T10:15:15;98791.09;;;14.51
80680;BMP280;70043;51.982;-8.514;2024-03-17T10:17:41;98798.38;;;14.59
80680;BMP280;70043;51.982;-8.514;2024-03-17T10:20:17;98804.63;;;14.68
80680;BMP280;70043;51.982;-8.514;2024-03-17T10:22:59;98801.94;;;14.80
80680;BMP280;70043;51.982;-8.514;2024-03-17T10:25:26;98801.50;;;15.20
80680;BMP280;70043;51.982;-8.514;2024-03-17T10:27:54;98810.22;;;15.19
80680;BMP280;70043;51.982;-8.514;2024-03-17T10:30:22;98803.03;;;15.16
80680;BMP280;70043;51.982;-8.514;2024-03-17T10:32:55;98809.19;;;15.15
80680;BMP280;70043;51.982;-8.514;2024-03-17T10:35:32;98821.75;;;15.11
80680;BMP280;70043;51.982;-8.514;2024-03-17T10:38:00;98809.72;;;15.17
80680;BMP280;70043;51.982;-8.514;2024-03-17T10:40:29;98814.59;;;15.18
80680;BMP280;70043;51.982;-8.514;2024-03-17T10:42:58;98819.50;;;15.20
80680;BMP280;70043;51.982;-8.514;2024-03-17T10:45:27;98823.13;;;15.24
80680;BMP280;70043;51.982;-8.514;2024-03-17T10:47:59;98829.06;;;15.24
80680;BMP280;70043;51.982;-8.514;2024-03-17T10:50:31;98829.84;;;15.25
80680;BMP280;70043;51.982;-8.514;2024-03-17T10:53:01;98832.91;;;15.27
80680;BMP280;70043;51.982;-8.514;2024-03-17T10:55:32;98839.38;;;15.29
80680;BMP280;70043;51.982;-8.514;2024-03-17T10:58:11;98845.84;;;15.32
80680;BMP280;70043;51.982;-8.514;2024-03-17T11:00:42;98850.19;;;15.31
80680;BMP280;70043;51.982;-8.514;2024-03-17T11:03:13;98855.38;;;15.36
80680;BMP280;70043;51.982;-8.514;2024-03-17T11:05:42;98848.69;;;15.35
80680;BMP280;70043;51.982;-8.514;2024-03-17T11:08:15;98847.91;;;15.35
80680;BMP280;70043;51.982;-8.514;2024-03-17T11:10:49;98853.06;;;15.35
80680;BMP280;70043;51.982;-8.514;2024-03-17T11:13:23;98845.34;;;15.35
80680;BMP280;70043;51.982;-8.514;2024-03-17T11:15:50;98847.13;;;15.34
80680;BMP280;70043;51.982;-8.514;2024-03-17T11:18:31;98837.34;;;15.31
80680;BMP280;70043;51.982;-8.514;2024-03-17T11:21:01;98840.41;;;15.28
80680;BMP280;70043;51.982;-8.514;2024-03-17T11:23:34;98858.13;;;15.25
80680;BMP280;70043;51.982;-8.514;2024-03-17T11:26:05;98841.69;;;15.26
80680;BMP280;70043;51.982;-8.514;2024-03-17T11:28:48;98843.03;;;15.33
80680;BMP280;70043;51.982;-8.514;2024-03-17T11:31:43;98841.25;;;15.39
80680;BMP280;70043;51.982;-8.514;2024-03-17T11:34:34;98841.56;;;15.42
80680;BMP280;70043;51.982;-8.514;2024-03-17T11:37:03;98845.91;;;15.42
80680;BMP280;70043;51.982;-8.514;2024-03-17T11:39:48;98847.47;;;15.43
80680;BMP280;70043;51.982;-8.514;2024-03-17T11:42:21;98851.63;;;15.49
80680;BMP280;70043;51.982;-8.514;2024-03-17T11:45:04;98851.19;;;15.62
80680;BMP280;70043;51.982;-8.514;2024-03-17T11:47:37;98851.31;;;15.72
80680;BMP280;70043;51.982;-8.514;2024-03-17T11:50:06;98850.94;;;16.05
80680;BMP280;70043;51.982;-8.514;2024-03-17T11:52:35;98854.09;;;16.18
80680;BMP280;70043;51.982;-8.514;2024-03-17T11:55:02;98854.47;;;16.36
80680;BMP280;70043;51.982;-8.514;2024-03-17T11:57:29;98853.72;;;16.51
80680;BMP280;70043;51.982;-8.514;2024-03-17T11:59:56;98850.94;;;16.68
80680;BMP280;70043;51.982;-8.514;2024-03-17T12:02:24;98841.41;;;16.83
80680;BMP280;70043;51.982;-8.514;2024-03-17T12:04:52;98843.50;;;17.01
80680;BMP280;70043;51.982;-8.514;2024-03-17T12:07:19;98827.25;;;17.31
80680;BMP280;70043;51.982;-8.514;2024-03-17T12:09:51;98824.13;;;17.44
80680;BMP280;70043;51.982;-8.514;2024-03-17T12:12:20;98820.75;;;17.54
80680;BMP280;70043;51.982;-8.514;2024-03-17T12:14:47;98823.31;;;17.64
80680;BMP280;70043;51.982;-8.514;2024-03-17T12:17:21;98828.94;;;17.86
80680;BMP280;70043;51.982;-8.514;2024-03-17T12:19:47;98835.88;;;18.01
80680;BMP280;70043;51.982;-8.514;2024-03-17T12:22:17;98843.84;;;18.09
80680;BMP280;70043;51.982;-8.514;2024-03-17T12:24:44;98844.03;;;18.23
80680;BMP280;70043;51.982;-8.514;2024-03-17T12:27:17;98848.63;;;18.36
80680;BMP280;70043;51.982;-8.514;2024-03-17T12:29:43;98861.47;;;18.51
80680;BMP280;70043;51.982;-8.514;2024-03-17T12:32:13;98857.84;;;18.57
80680;BMP280;70043;51.982;-8.514;2024-03-17T12:34:40;98860.94;;;18.54
80680;BMP280;70043;51.982;-8.514;2024-03-17T12:37:08;98855.56;;;18.46
80680;BMP280;70043;51.982;-8.514;2024-03-17T12:39:35;98862.06;;;18.33
80680;BMP280;70043;51.982;-8.514;2024-03-17T12:42:05;98847.84;;;18.36
80680;BMP280;70043;51.982;-8.514;2024-03-17T12:44:34;98858.13;;;18.46
80680;BMP280;70043;51.982;-8.514;2024-03-17T12:47:03;98866.66;;;18.46
80680;BMP280;70043;51.982;-8.514;2024-03-17T12:49:30;98869.00;;;18.48
80680;BMP280;70043;51.982;-8.514;2024-03-17T12:51:58;98875.22;;;18.42
80680;BMP280;70043;51.982;-8.514;2024-03-17T12:54:26;98872.91;;;18.35
80680;BMP280;70043;51.982;-8.514;2024-03-17T12:57:03;98879.69;;;18.26
80680;BMP280;70043;51.982;-8.514;2024-03-17T12:59:49;98886.16;;;18.29
80680;BMP280;70043;51.982;-8.514;2024-03-17T13:02:33;98877.38;;;18.25
80680;BMP280;70043;51.982;-8.514;2024-03-17T13:05:16;98887.69;;;18.25
80680;BMP280;70043;51.982;-8.514;2024-03-17T13:07:46;98886.69;;;18.20
80680;BMP280;70043;51.982;-8.514;2024-03-17T13:10:14;98879.47;;;18.12
80680;BMP280;70043;51.982;-8.514;2024-03-17T13:12:42;98871.72;;;18.07
80680;BMP280;70043;51.982;-8.514;2024-03-17T13:15:12;98876.91;;;18.07
80680;BMP280;70043;51.982;-8.514;2024-03-17T13:17:40;98876.91;;;18.07
80680;BMP280;70043;51.982;-8.514;2024-03-17T13:20:12;98868.41;;;18.02
80680;BMP280;70043;51.982;-8.514;2024-03-17T13:22:40;98864.50;;;18.04
80680;BMP280;70043;51.982;-8.514;2024-03-17T13:25:13;98865.78;;;18.07
80680;BMP280;70043;51.982;-8.514;2024-03-17T13:27:40;98856.75;;;18.04
80680;BMP280;70043;51.982;-8.514;2024-03-17T13:30:08;98861.91;;;18.19
80680;BMP280;70043;51.982;-8.514;2024-03-17T13:32:37;98849.91;;;18.39
80680;BMP280;70043;51.982;-8.514;2024-03-17T13:35:05;98856.00;;;18.53
80680;BMP280;70043;51.982;-8.514;2024-03-17T13:37:34;98849.31;;;18.57
80680;BMP280;70043;51.982;-8.514;2024-03-17T13:40:03;98853.59;;;18.66
80680;BMP280;70043;51.982;-8.514;2024-03-17T13:42:31;98853.06;;;18.69
80680;BMP280;70043;51.982;-8.514;2024-03-17T13:44:58;98849.75;;;18.64
80680;BMP280;70043;51.982;-8.514;2024-03-17T13:47:25;98852.78;;;18.76
80680;BMP280;70043;51.982;-8.514;2024-03-17T13:49:53;98846.78;;;18.81
80680;BMP280;70043;51.982;-8.514;2024-03-17T13:52:20;98854.81;;;18.84
80680;BMP280;70043;51.982;-8.514;2024-03-17T13:54:47;98842.13;;;18.83
80680;BMP280;70043;51.982;-8.514;2024-03-17T13:57:14;98834.38;;;18.83
80680;BMP280;70043;51.982;-8.514;2024-03-17T13:59:42;98833.63;;;18.77
80680;BMP280;70043;51.982;-8.514;2024-03-17T14:02:12;98831.34;;;18.70
80680;BMP280;70043;51.982;-8.514;2024-03-17T14:04:39;98832.63;;;18.68
80680;BMP280;70043;51.982;-8.514;2024-03-17T14:07:07;98833.22;;;18.65
80680;BMP280;70043;51.982;-8.514;2024-03-17T14:09:34;98834.97;;;18.74